createdAt,value
2022-08-07T00:00:12.755Z,101012.00
2022-08-07T00:00:44.655Z,101016.59
2022-08-07T00:01:44.340Z,101016.09
2022-08-07T00:02:39.910Z,101009.31
2022-08-07T00:03:01.109Z,101014.38
2022-08-07T00:03:36.642Z,101007.13
2022-08-07T00:04:09.315Z,101009.78
2022-08-07T00:04:42.674Z,101016.34
2022-08-07T00:05:16.791Z,101011.84
2022-08-07T00:05:48.134Z,101008.78
2022-08-07T00:06:20.540Z,101013.53
2022-08-07T00:07:05.198Z,101007.34
2022-08-07T00:07:41.633Z,101004.44
2022-08-07T00:08:14.512Z,101003.69
2022-08-07T00:08:45.993Z,101009.78
2022-08-07T00:09:21.412Z,101006.13
2022-08-07T00:10:17.690Z,101003.81
2022-08-07T00:10:47.963Z,101007.13
2022-08-07T00:11:29.931Z,101009.03
2022-08-07T00:12:04.683Z,101006.50
2022-08-07T00:12:35.997Z,101003.97
2022-08-07T00:13:27.337Z,101006.50
2022-08-07T00:13:58.671Z,101003.31
2022-08-07T00:14:31.450Z,101010.75
2022-08-07T00:15:03.058Z,101003.56
2022-08-07T00:15:38.501Z,101004.69
2022-08-07T00:16:17.873Z,100997.41
2022-08-07T00:16:59.621Z,101000.66
2022-08-07T00:17:31.036Z,100995.94
2022-08-07T00:18:07.500Z,100998.34
2022-08-07T00:18:50.278Z,101001.03
2022-08-07T00:19:26.094Z,100994.13
2022-08-07T00:20:06.136Z,101002.00
2022-08-07T00:20:39.583Z,100994.34
2022-08-07T00:21:56.289Z,100993.97
2022-08-07T00:22:03.469Z,100990.72
2022-08-07T00:22:35.789Z,100999.91
2022-08-07T00:23:08.719Z,100997.34
2022-08-07T00:23:41.946Z,100997.59
2022-08-07T00:24:14.656Z,100989.34
2022-08-07T00:24:48.165Z,100991.03
2022-08-07T00:25:19.548Z,100996.03
2022-08-07T00:25:58.256Z,100991.28
2022-08-07T00:26:49.565Z,101000.41
2022-08-07T00:27:23.184Z,100995.69
2022-08-07T00:27:58.804Z,100994.97
2022-08-07T00:28:31.768Z,100998.75
2022-08-07T00:29:05.221Z,100998.34
2022-08-07T00:29:37.471Z,100992.50
2022-08-07T00:30:26.318Z,100994.22
2022-08-07T00:30:59.689Z,100986.91
2022-08-07T00:31:37.634Z,100997.34
2022-08-07T00:32:15.768Z,100987.16
2022-08-07T00:32:47.690Z,100986.31
2022-08-07T00:33:20.155Z,100987.41
2022-08-07T00:33:51.551Z,100979.41
2022-08-07T00:34:23.285Z,100996.66
2022-08-07T00:34:56.501Z,100980.88
2022-08-07T00:35:29.735Z,100987.66
2022-08-07T00:36:01.658Z,100987.41
2022-08-07T00:36:33.004Z,100984.50
2022-08-07T00:37:05.089Z,100988.28
2022-08-07T00:37:48.097Z,100987.16
2022-08-07T00:38:31.338Z,100979.63
2022-08-07T00:39:03.402Z,100987.16
2022-08-07T00:39:34.939Z,100988.28
2022-08-07T00:40:07.060Z,100981.81
2022-08-07T00:40:42.241Z,100987.41
2022-08-07T00:41:15.348Z,100982.94
2022-08-07T00:41:53.910Z,100984.63
2022-08-07T00:42:36.579Z,100980.59
2022-08-07T00:43:09.838Z,100986.31
2022-08-07T00:43:59.684Z,100977.59
2022-08-07T00:44:34.174Z,100984.25
2022-08-07T00:45:06.992Z,100985.22
2022-08-07T00:45:39.027Z,100984.38
2022-08-07T00:46:10.346Z,100983.06
2022-08-07T00:46:42.299Z,100985.09
2022-08-07T00:47:26.565Z,100976.50
2022-08-07T00:48:08.829Z,100986.59
2022-08-07T00:48:42.174Z,100984.38
2022-08-07T00:49:24.843Z,100986.59
2022-08-07T00:50:18.944Z,100987.19
2022-08-07T00:50:52.947Z,100984.63
2022-08-07T00:51:27.718Z,100977.75
2022-08-07T00:52:17.685Z,100983.09
2022-08-07T00:52:51.462Z,100983.56
2022-08-07T00:53:24.399Z,100985.00
2022-08-07T00:53:56.043Z,100986.00
2022-08-07T00:54:27.459Z,100980.53
2022-08-07T00:55:04.642Z,100977.00
2022-08-07T00:56:00.442Z,100978.69
2022-08-07T00:56:33.920Z,100981.13
2022-08-07T00:57:05.394Z,100972.28
2022-08-07T00:57:37.572Z,100971.53
2022-08-07T00:58:15.981Z,100978.34
2022-08-07T00:58:49.956Z,100977.63
2022-08-07T00:59:35.292Z,100982.22
2022-08-07T01:00:07.592Z,100979.66
2022-08-07T01:00:39.343Z,100984.75
2022-08-07T01:01:25.224Z,100982.97
2022-08-07T01:01:57.977Z,100985.88
2022-08-07T01:02:29.676Z,100972.16
2022-08-07T01:03:01.286Z,100976.38
2022-08-07T01:03:56.120Z,100983.56
2022-08-07T01:04:24.960Z,100977.50
2022-08-07T01:04:58.640Z,100983.69
2022-08-07T01:05:30.355Z,100979.16
2022-08-07T01:06:08.208Z,100970.69
2022-08-07T01:06:39.550Z,100974.81
2022-08-07T01:07:11.576Z,100973.22
2022-08-07T01:07:43.981Z,100976.63
2022-08-07T01:08:15.372Z,100969.59
2022-08-07T01:08:52.884Z,100973.34
2022-08-07T01:10:03.932Z,100968.84
2022-08-07T01:10:16.582Z,100970.44
2022-08-07T01:10:56.384Z,100975.53
2022-08-07T01:12:23.866Z,100967.88
2022-08-07T01:12:30.077Z,100967.53
2022-08-07T01:13:02.763Z,100967.75
2022-08-07T01:13:35.191Z,100971.81
2022-08-07T01:14:07.100Z,100968.00
2022-08-07T01:14:40.060Z,100967.06
2022-08-07T01:15:17.695Z,100967.75
2022-08-07T01:16:05.191Z,100968.97
2022-08-07T01:16:37.345Z,100970.69
2022-08-07T01:17:09.164Z,100967.88
2022-08-07T01:17:40.558Z,100967.16
2022-08-07T01:18:17.542Z,100968.13
2022-08-07T01:18:49.144Z,100972.66
2022-08-07T01:19:22.161Z,100966.31
2022-08-07T01:19:54.618Z,100970.44
2022-08-07T01:20:30.790Z,100964.97
2022-08-07T01:21:05.722Z,100972.16
2022-08-07T01:21:55.343Z,100964.84
2022-08-07T01:22:29.396Z,100970.19
2022-08-07T01:23:12.410Z,100969.84
2022-08-07T01:23:46.637Z,100966.81
2022-08-07T01:24:18.743Z,100966.56
2022-08-07T01:24:53.297Z,100972.75
2022-08-07T01:25:54.918Z,100969.22
2022-08-07T01:26:16.715Z,100968.22
2022-08-07T01:26:52.447Z,100971.03
2022-08-07T01:27:24.011Z,100968.59
2022-08-07T01:28:03.671Z,100976.50
2022-08-07T01:28:35.288Z,100972.28
2022-08-07T01:29:08.028Z,100964.13
2022-08-07T01:29:39.403Z,100975.78
2022-08-07T01:30:10.937Z,100974.97
2022-08-07T01:30:42.302Z,100969.50
2022-08-07T01:31:15.549Z,100964.75
2022-08-07T01:31:49.649Z,100967.28
2022-08-07T01:32:22.508Z,100964.50
2022-08-07T01:32:54.390Z,100963.38
2022-08-07T01:33:47.634Z,100960.34
2022-08-07T01:34:17.204Z,100962.75
2022-08-07T01:34:49.337Z,100960.09
2022-08-07T01:35:20.888Z,100957.78
2022-08-07T01:36:06.473Z,100958.25
2022-08-07T01:36:40.581Z,100960.94
2022-08-07T01:37:12.089Z,100960.94
2022-08-07T01:37:44.404Z,100962.63
2022-08-07T01:38:24.822Z,100960.81
2022-08-07T01:38:57.301Z,100966.41
2022-08-07T01:39:39.523Z,100957.41
2022-08-07T01:40:19.331Z,100952.44
2022-08-07T01:40:50.744Z,100961.22
2022-08-07T01:41:26.364Z,100962.06
2022-08-07T01:42:37.771Z,100957.78
2022-08-07T01:42:57.152Z,100960.22
2022-08-07T01:43:34.708Z,100960.22
2022-08-07T01:44:10.219Z,100959.00
2022-08-07T01:44:42.009Z,100960.69
2022-08-07T01:45:18.329Z,100961.44
2022-08-07T01:45:49.954Z,100959.59
2022-08-07T01:46:25.966Z,100959.47
2022-08-07T01:46:58.723Z,100962.38
2022-08-07T01:48:30.202Z,100961.59
2022-08-07T01:48:30.466Z,100961.56
2022-08-07T01:49:02.401Z,100963.13
2022-08-07T01:49:34.145Z,100965.09
2022-08-07T01:50:05.958Z,100964.25
2022-08-07T01:50:37.476Z,100963.25
2022-08-07T01:51:24.708Z,100958.91
2022-08-07T01:52:08.797Z,100957.44
2022-08-07T01:52:54.027Z,100957.69
2022-08-07T01:54:09.206Z,100964.16
2022-08-07T01:54:32.786Z,100966.19
2022-08-07T01:55:11.147Z,100959.53
2022-08-07T01:55:58.357Z,100962.56
2022-08-07T01:56:32.769Z,100959.06
2022-08-07T01:57:08.453Z,100962.69
2022-08-07T01:58:05.817Z,100964.06
2022-08-07T01:58:33.161Z,100965.09
2022-08-07T01:59:05.539Z,100963.94
2022-08-07T01:59:46.872Z,100961.97
2022-08-07T02:00:19.638Z,100965.72
2022-08-07T02:01:10.328Z,100965.50
2022-08-07T02:02:01.966Z,100962.56
2022-08-07T02:03:18.174Z,100960.84
2022-08-07T02:03:42.912Z,100966.34
2022-08-07T02:04:26.592Z,100958.81
2022-08-07T02:04:59.292Z,100962.44
2022-08-07T02:05:47.724Z,100961.47
2022-08-07T02:06:30.704Z,100962.31
2022-08-07T02:07:03.800Z,100965.25
2022-08-07T02:07:49.923Z,100956.13
2022-08-07T02:08:23.672Z,100957.81
2022-08-07T02:08:55.560Z,100962.19
2022-08-07T02:09:51.870Z,100963.41
2022-08-07T02:10:19.049Z,100960.50
2022-08-07T02:10:55.254Z,100958.81
2022-08-07T02:11:43.400Z,100955.91
2022-08-07T02:12:19.290Z,100958.56
2022-08-07T02:13:01.413Z,100963.91
2022-08-07T02:13:57.163Z,100964.28
2022-08-07T02:14:40.203Z,100961.59
2022-08-07T02:15:13.121Z,100952.34
2022-08-07T02:15:45.849Z,100961.25
2022-08-07T02:16:17.534Z,100959.53
2022-08-07T02:16:51.416Z,100957.56
2022-08-07T02:17:27.590Z,100954.44
2022-08-07T02:18:03.439Z,100955.16
2022-08-07T02:18:36.045Z,100961.25
2022-08-07T02:20:05.246Z,100953.47
2022-08-07T02:20:09.964Z,100961.72
2022-08-07T02:20:55.832Z,100961.72
2022-08-07T02:21:55.902Z,100958.06
2022-08-07T02:22:20.632Z,100959.78
2022-08-07T02:22:59.673Z,100955.16
2022-08-07T02:23:35.980Z,100946.66
2022-08-07T02:24:07.714Z,100954.44
2022-08-07T02:24:44.658Z,100954.56
2022-08-07T02:25:18.503Z,100952.00
2022-08-07T02:26:30.865Z,100951.03
2022-08-07T02:26:41.669Z,100952.72
2022-08-07T02:27:15.380Z,100953.59
2022-08-07T02:27:51.304Z,100950.06
2022-08-07T02:28:27.076Z,100958.81
2022-08-07T02:28:58.819Z,100958.81
2022-08-07T02:29:31.812Z,100951.75
2022-08-07T02:30:07.170Z,100953.72
2022-08-07T02:30:40.222Z,100948.38
2022-08-07T02:31:28.711Z,100953.72
2022-08-07T02:32:00.936Z,100947.38
2022-08-07T02:32:32.815Z,100963.41
2022-08-07T02:33:09.188Z,100954.56
2022-08-07T02:34:01.925Z,100961.47
2022-08-07T02:34:32.851Z,100948.38
2022-08-07T02:35:06.080Z,100952.72
2022-08-07T02:36:29.775Z,100954.56
2022-08-07T02:36:33.017Z,100952.72
2022-08-07T02:37:08.282Z,100950.91
2022-08-07T02:37:44.105Z,100947.50
2022-08-07T02:38:16.393Z,100953.72
2022-08-07T02:38:50.571Z,100953.84
2022-08-07T02:39:43.030Z,100957.59
2022-08-07T02:40:34.888Z,100956.38
2022-08-07T02:41:07.913Z,100953.97
2022-08-07T02:41:50.626Z,100956.63
2022-08-07T02:42:26.283Z,100948.75
2022-08-07T02:42:58.047Z,100947.78
2022-08-07T02:43:29.619Z,100950.31
2022-08-07T02:44:01.690Z,100952.00
2022-08-07T02:44:34.897Z,100953.84
2022-08-07T02:45:58.102Z,100947.66
2022-08-07T02:46:01.703Z,100943.03
2022-08-07T02:46:33.859Z,100945.56
2022-08-07T02:47:08.420Z,100937.81
2022-08-07T02:47:51.613Z,100952.50
2022-08-07T02:48:23.725Z,100949.69
2022-08-07T02:48:55.437Z,100955.78
2022-08-07T02:49:56.077Z,100947.66
2022-08-07T02:50:18.623Z,100946.06
2022-08-07T02:50:50.499Z,100941.81
2022-08-07T02:51:42.956Z,100952.38
2022-08-07T02:52:14.445Z,100944.13
2022-08-07T02:53:06.466Z,100943.53
2022-08-07T02:53:39.038Z,100944.34
2022-08-07T02:54:10.762Z,100947.03
2022-08-07T02:54:44.890Z,100945.22
2022-08-07T02:55:28.801Z,100952.25
2022-08-07T02:56:21.261Z,100954.41
2022-08-07T02:56:53.723Z,100950.03
2022-08-07T02:57:31.031Z,100949.91
2022-08-07T02:58:07.637Z,100948.13
2022-08-07T02:58:47.199Z,100947.38
2022-08-07T02:59:19.325Z,100940.09
2022-08-07T03:00:04.668Z,100942.78
2022-08-07T03:00:39.221Z,100945.44
2022-08-07T03:01:18.550Z,100951.03
2022-08-07T03:01:52.071Z,100950.19
2022-08-07T03:02:26.698Z,100945.69
2022-08-07T03:02:58.304Z,100940.09
2022-08-07T03:03:49.044Z,100942.78
2022-08-07T03:04:21.892Z,100941.06
2022-08-07T03:04:55.901Z,100949.91
2022-08-07T03:05:29.227Z,100945.44
2022-08-07T03:06:07.697Z,100951.03
2022-08-07T03:06:48.563Z,100946.78
2022-08-07T03:07:21.509Z,100936.97
2022-08-07T03:08:12.219Z,100950.44
2022-08-07T03:08:43.890Z,100937.19
2022-08-07T03:09:43.897Z,100945.22
2022-08-07T03:10:07.761Z,100944.47
2022-08-07T03:10:40.885Z,100940.00
2022-08-07T03:11:18.574Z,100938.03
2022-08-07T03:12:02.721Z,100940.59
2022-08-07T03:12:34.792Z,100939.88
2022-08-07T03:13:06.838Z,100948.47
2022-08-07T03:13:49.525Z,100945.94
2022-08-07T03:14:22.576Z,100943.25
2022-08-07T03:14:54.274Z,100945.94
2022-08-07T03:15:30.391Z,100948.47
2022-08-07T03:16:17.749Z,100949.31
2022-08-07T03:16:54.609Z,100948.47
2022-08-07T03:17:26.374Z,100944.97
2022-08-07T03:17:59.285Z,100953.00
2022-08-07T03:18:34.643Z,100947.66
2022-08-07T03:19:07.635Z,100947.66
2022-08-07T03:19:39.937Z,100950.19
2022-08-07T03:20:12.793Z,100946.66
2022-08-07T03:20:44.410Z,100953.69
2022-08-07T03:21:19.014Z,100950.19
2022-08-07T03:21:51.162Z,100955.53
2022-08-07T03:22:23.423Z,100952.00
2022-08-07T03:22:55.804Z,100947.88
2022-08-07T03:23:33.632Z,100954.91
2022-08-07T03:24:27.588Z,100954.19
2022-08-07T03:25:02.521Z,100944.47
2022-08-07T03:25:40.472Z,100948.97
2022-08-07T03:26:15.672Z,100948.72
2022-08-07T03:26:58.997Z,100946.19
2022-08-07T03:27:59.151Z,100949.81
2022-08-07T03:28:37.649Z,100947.13
2022-08-07T03:29:11.198Z,100949.94
2022-08-07T03:29:50.492Z,100947.13
2022-08-07T03:30:24.309Z,100953.47
2022-08-07T03:30:56.067Z,100939.41
2022-08-07T03:31:42.508Z,100947.53
2022-08-07T03:32:15.750Z,100943.03
2022-08-07T03:32:58.286Z,100948.38
2022-08-07T03:33:32.314Z,100951.75
2022-08-07T03:34:18.270Z,100948.13
2022-08-07T03:35:00.810Z,100938.53
2022-08-07T03:35:50.533Z,100943.63
2022-08-07T03:36:23.238Z,100937.69
2022-08-07T03:36:58.294Z,100946.41
2022-08-07T03:37:32.804Z,100937.69
2022-08-07T03:38:09.355Z,100945.59
2022-08-07T03:38:45.002Z,100938.53
2022-08-07T03:39:46.446Z,100938.28
2022-08-07T03:40:15.626Z,100943.50
2022-08-07T03:40:57.141Z,100936.56
2022-08-07T03:41:42.420Z,100942.66
2022-08-07T03:42:19.994Z,100940.38
2022-08-07T03:42:51.847Z,100944.75
2022-08-07T03:43:23.465Z,100937.69
2022-08-07T03:43:58.456Z,100939.53
2022-08-07T03:44:31.832Z,100939.66
2022-08-07T03:45:06.349Z,100935.25
2022-08-07T03:45:39.832Z,100937.69
2022-08-07T03:46:18.428Z,100935.16
2022-08-07T03:47:10.990Z,100935.97
2022-08-07T03:47:48.272Z,100935.97
2022-08-07T03:48:23.135Z,100936.97
2022-08-07T03:49:02.772Z,100937.94
2022-08-07T03:49:35.237Z,100935.50
2022-08-07T03:50:07.223Z,100935.50
2022-08-07T03:50:43.160Z,100931.88
2022-08-07T03:51:30.841Z,100930.63
2022-08-07T03:52:22.512Z,100941.56
2022-08-07T03:52:54.651Z,100941.31
2022-08-07T03:53:50.116Z,100945.72
2022-08-07T03:54:36.508Z,100937.09
2022-08-07T03:55:09.723Z,100944.13
2022-08-07T03:55:55.659Z,100940.47
2022-08-07T03:56:35.297Z,100941.19
2022-08-07T03:57:07.115Z,100935.16
2022-08-07T03:58:34.574Z,100945.72
2022-08-07T03:59:09.711Z,100940.47
2022-08-07T03:59:22.235Z,100938.91
2022-08-07T04:00:01.776Z,100931.75
2022-08-07T04:00:36.624Z,100935.50
2022-08-07T04:01:11.011Z,100939.00
2022-08-07T04:01:45.576Z,100931.88
2022-08-07T04:02:17.598Z,100931.75
2022-08-07T04:02:50.668Z,100932.84
2022-08-07T04:03:28.428Z,100934.53
2022-08-07T04:04:20.076Z,100934.78
2022-08-07T04:04:51.631Z,100931.13
2022-08-07T04:05:28.765Z,100939.00
2022-08-07T04:06:37.860Z,100932.25
2022-08-07T04:07:16.611Z,100930.16
2022-08-07T04:07:49.432Z,100928.56
2022-08-07T04:08:22.224Z,100933.81
2022-08-07T04:08:54.494Z,100927.75
2022-08-07T04:09:38.020Z,100933.09
2022-08-07T04:10:19.758Z,100929.56
2022-08-07T04:10:54.163Z,100932.84
2022-08-07T04:12:25.027Z,100924.09
2022-08-07T04:12:38.159Z,100926.78
2022-08-07T04:13:15.453Z,100934.78
2022-08-07T04:14:09.945Z,100930.28
2022-08-07T04:14:43.950Z,100933.09
2022-08-07T04:15:19.320Z,100928.72
2022-08-07T04:15:55.441Z,100927.97
2022-08-07T04:16:31.546Z,100926.31
2022-08-07T04:17:04.226Z,100930.41
2022-08-07T04:18:31.140Z,100932.00
2022-08-07T04:18:59.716Z,100928.47
2022-08-07T04:19:51.156Z,100925.78
2022-08-07T04:20:25.311Z,100931.88
2022-08-07T04:20:57.011Z,100933.69
2022-08-07T04:21:31.873Z,100928.47
2022-08-07T04:22:12.274Z,100924.94
2022-08-07T04:22:53.048Z,100933.81
2022-08-07T04:23:25.541Z,100930.28
2022-08-07T04:24:30.548Z,100937.34
2022-08-07T04:25:12.138Z,100933.81
2022-08-07T04:25:44.408Z,100929.44
2022-08-07T04:26:16.936Z,100924.81
2022-08-07T04:26:53.604Z,100931.13
2022-08-07T04:27:26.519Z,100930.41
2022-08-07T04:27:59.163Z,100937.59
2022-08-07T04:28:31.867Z,100934.78
2022-08-07T04:29:03.674Z,100934.78
2022-08-07T04:29:48.799Z,100929.44
2022-08-07T04:30:35.875Z,100932.00
2022-08-07T04:31:20.031Z,100938.91
2022-08-07T04:32:10.165Z,100939.88
2022-08-07T04:32:44.973Z,100932.59
2022-08-07T04:33:19.501Z,100935.16
2022-08-07T04:33:54.924Z,100932.34
2022-08-07T04:34:33.308Z,100940.59
2022-08-07T04:35:07.088Z,100935.97
2022-08-07T04:35:38.950Z,100935.97
2022-08-07T04:36:10.527Z,100935.16
2022-08-07T04:36:42.422Z,100932.47
2022-08-07T04:37:20.461Z,100937.22
2022-08-07T04:38:03.703Z,100935.25
2022-08-07T04:38:38.293Z,100935.50
2022-08-07T04:39:10.550Z,100936.59
2022-08-07T04:39:47.842Z,100939.00
2022-08-07T04:40:21.455Z,100939.75
2022-08-07T04:40:58.367Z,100944.00
2022-08-07T04:41:29.962Z,100937.69
2022-08-07T04:42:08.513Z,100930.75
2022-08-07T04:42:40.177Z,100941.31
2022-08-07T04:43:15.396Z,100938.78
2022-08-07T04:44:12.364Z,100935.38
2022-08-07T04:44:54.370Z,100938.78
2022-08-07T04:46:01.680Z,100938.91
2022-08-07T04:46:59.326Z,100933.69
2022-08-07T04:47:58.586Z,100937.81
2022-08-07T04:48:50.953Z,100937.56
2022-08-07T04:49:24.656Z,100936.84
2022-08-07T04:50:03.991Z,100941.91
2022-08-07T04:50:41.343Z,100940.13
2022-08-07T04:51:16.272Z,100945.47
2022-08-07T04:52:08.979Z,100941.78
2022-08-07T04:52:51.749Z,100940.25
2022-08-07T04:53:39.859Z,100940.13
2022-08-07T04:54:30.239Z,100942.66
2022-08-07T04:55:14.905Z,100943.38
2022-08-07T04:58:11.699Z,100943.38
2022-08-07T04:58:11.836Z,100939.88
2022-08-07T04:58:16.493Z,100940.59
2022-08-07T04:59:18.541Z,100941.56
2022-08-07T05:00:13.163Z,100942.53
2022-08-07T05:00:47.486Z,100943.75
2022-08-07T05:01:34.541Z,100941.09
2022-08-07T05:02:16.829Z,100953.97
2022-08-07T05:03:03.666Z,100944.59
2022-08-07T05:04:08.171Z,100954.44
2022-08-07T05:04:47.267Z,100945.22
2022-08-07T05:05:52.710Z,100947.88
2022-08-07T05:06:20.357Z,100947.00
2022-08-07T05:06:53.117Z,100939.13
2022-08-07T05:07:45.675Z,100942.78
2022-08-07T05:08:59.627Z,100935.75
2022-08-07T05:09:42.989Z,100940.84
2022-08-07T05:10:19.792Z,100948.25
2022-08-07T05:10:58.536Z,100941.09
2022-08-07T05:11:57.388Z,100941.91
2022-08-07T05:12:30.446Z,100936.84
2022-08-07T05:14:54.297Z,100947.53
2022-08-07T05:14:56.172Z,100945.47
2022-08-07T05:15:03.243Z,100941.78
2022-08-07T05:15:37.056Z,100939.13
2022-08-07T05:16:09.444Z,100946.19
2022-08-07T05:16:45.437Z,100941.91
2022-08-07T05:17:52.502Z,100939.66
2022-08-07T05:18:13.216Z,100941.19
2022-08-07T05:18:53.412Z,100937.94
2022-08-07T05:19:44.179Z,100935.16
2022-08-07T05:20:20.370Z,100941.19
2022-08-07T05:20:56.810Z,100945.81
2022-08-07T05:22:00.379Z,100946.53
2022-08-07T05:22:27.706Z,100945.00
2022-08-07T05:23:02.094Z,100949.22
2022-08-07T05:23:38.268Z,100950.09
2022-08-07T05:24:10.280Z,100943.88
2022-08-07T05:24:42.932Z,100944.00
2022-08-07T05:25:25.679Z,100952.00
2022-08-07T05:26:18.883Z,100946.66
2022-08-07T05:26:58.581Z,100948.38
2022-08-07T05:28:16.719Z,100954.44
2022-08-07T05:28:26.682Z,100951.75
2022-08-07T05:28:59.734Z,100955.56
2022-08-07T05:29:38.988Z,100952.00
2022-08-07T05:30:32.638Z,100952.00
2022-08-07T05:31:04.665Z,100957.09
2022-08-07T05:31:37.964Z,100951.75
2022-08-07T05:32:09.561Z,100953.47
2022-08-07T05:32:42.855Z,100950.81
2022-08-07T05:33:17.993Z,100955.66
2022-08-07T05:34:01.492Z,100954.78
2022-08-07T05:34:36.995Z,100961.00
2022-08-07T05:35:08.905Z,100952.50
2022-08-07T05:35:41.686Z,100958.34
2022-08-07T05:36:22.541Z,100959.91
2022-08-07T05:37:02.156Z,100953.97
2022-08-07T05:37:37.719Z,100958.00
2022-08-07T05:39:00.607Z,100960.03
2022-08-07T05:40:05.547Z,100950.81
2022-08-07T05:40:13.759Z,100953.72
2022-08-07T05:40:51.547Z,100960.16
2022-08-07T05:41:23.450Z,100961.50
2022-08-07T05:42:02.497Z,100962.22
2022-08-07T05:42:37.030Z,100961.00
2022-08-07T05:43:10.784Z,100961.72
2022-08-07T05:44:01.284Z,100958.94
2022-08-07T05:44:41.549Z,100959.78
2022-08-07T05:45:46.843Z,100962.34
2022-08-07T05:46:16.631Z,100963.19
2022-08-07T05:46:51.288Z,100958.94
2022-08-07T05:47:38.153Z,100960.50
2022-08-07T05:48:14.968Z,100959.53
2022-08-07T05:48:59.168Z,100952.50
2022-08-07T05:49:40.491Z,100957.59
2022-08-07T05:50:12.617Z,100958.47
2022-08-07T05:50:44.768Z,100963.81
2022-08-07T05:51:16.376Z,100958.59
2022-08-07T05:51:48.008Z,100959.31
2022-08-07T05:52:20.548Z,100962.69
2022-08-07T05:53:02.045Z,100953.00
2022-08-07T05:54:13.134Z,100956.63
2022-08-07T05:54:44.151Z,100962.09
2022-08-07T05:55:19.093Z,100961.38
2022-08-07T05:56:02.063Z,100960.25
2022-08-07T05:56:35.387Z,100957.84
2022-08-07T05:57:07.416Z,100962.09
2022-08-07T05:57:41.928Z,100966.84
2022-08-07T05:58:13.941Z,100962.34
2022-08-07T05:58:52.547Z,100967.69
2022-08-07T05:59:24.556Z,100966.59
2022-08-07T05:59:57.749Z,100972.78
2022-08-07T06:00:30.141Z,100963.19
2022-08-07T06:01:05.151Z,100963.19
2022-08-07T06:01:40.020Z,100965.72
2022-08-07T06:02:14.759Z,100972.78
2022-08-07T06:02:50.730Z,100964.75
2022-08-07T06:03:22.962Z,100966.59
2022-08-07T06:03:58.568Z,100967.44
2022-08-07T06:04:34.159Z,100967.31
2022-08-07T06:05:10.794Z,100965.59
2022-08-07T06:05:48.932Z,100972.66
2022-08-07T06:06:20.846Z,100969.97
2022-08-07T06:06:56.709Z,100966.47
2022-08-07T06:08:29.961Z,100969.03
2022-08-07T06:08:30.885Z,100968.91
2022-08-07T06:09:04.353Z,100962.69
2022-08-07T06:10:03.849Z,100954.69
2022-08-07T06:10:28.577Z,100963.19
2022-08-07T06:11:00.171Z,100966.59
2022-08-07T06:11:35.603Z,100958.69
2022-08-07T06:12:07.418Z,100967.56
2022-08-07T06:12:38.981Z,100959.78
2022-08-07T06:13:13.601Z,100963.69
2022-08-07T06:14:13.094Z,100957.72
2022-08-07T06:14:38.722Z,100966.84
2022-08-07T06:15:15.285Z,100968.03
2022-08-07T06:15:48.370Z,100962.34
2022-08-07T06:16:22.730Z,100968.50
2022-08-07T06:16:59.912Z,100967.06
2022-08-07T06:17:37.457Z,100966.13
2022-08-07T06:18:12.156Z,100961.03
2022-08-07T06:18:51.453Z,100964.03
2022-08-07T06:19:51.858Z,100968.78
2022-08-07T06:20:25.425Z,100970.69
2022-08-07T06:22:14.806Z,100971.69
2022-08-07T06:22:16.274Z,100965.38
2022-08-07T06:23:02.298Z,100968.28
2022-08-07T06:24:32.562Z,100963.91
2022-08-07T06:24:52.740Z,100969.03
2022-08-07T06:25:28.897Z,100971.81
2022-08-07T06:26:06.503Z,100969.25
2022-08-07T06:26:41.810Z,100969.97
2022-08-07T06:27:43.768Z,100971.44
2022-08-07T06:28:14.065Z,100967.19
2022-08-07T06:28:53.039Z,100969.75
2022-08-07T06:29:27.781Z,100969.63
2022-08-07T06:30:00.990Z,100957.88
2022-08-07T06:30:37.367Z,100963.22
2022-08-07T06:31:13.149Z,100964.03
2022-08-07T06:31:49.518Z,100966.72
2022-08-07T06:32:22.130Z,100966.97
2022-08-07T06:33:01.161Z,100967.06
2022-08-07T06:33:33.048Z,100970.47
2022-08-07T06:34:04.960Z,100967.06
2022-08-07T06:34:36.625Z,100972.19
2022-08-07T06:35:17.721Z,100960.53
2022-08-07T06:36:12.043Z,100962.22
2022-08-07T06:36:41.601Z,100969.16
2022-08-07T06:37:17.333Z,100970.09
2022-08-07T06:37:52.993Z,100975.56
2022-08-07T06:38:26.110Z,100967.56
2022-08-07T06:40:16.058Z,100959.91
2022-08-07T06:40:16.059Z,100964.28
2022-08-07T06:40:49.567Z,100959.66
2022-08-07T06:42:00.367Z,100966.84
2022-08-07T06:42:16.175Z,100962.47
2022-08-07T06:42:48.089Z,100957.22
2022-08-07T06:43:22.402Z,100962.34
2022-08-07T06:43:59.385Z,100963.44
2022-08-07T06:44:36.839Z,100964.16
2022-08-07T06:45:12.129Z,100961.50
2022-08-07T06:45:49.702Z,100967.78
2022-08-07T06:46:31.633Z,100958.59
2022-08-07T06:47:12.387Z,100965.25
2022-08-07T06:47:57.795Z,100961.63
2022-08-07T06:48:31.196Z,100957.72
2022-08-07T06:49:04.905Z,100955.78
2022-08-07T06:49:36.413Z,100957.22
2022-08-07T06:50:24.141Z,100957.84
2022-08-07T06:50:56.777Z,100959.41
2022-08-07T06:51:33.161Z,100955.66
2022-08-07T06:52:07.380Z,100957.34
2022-08-07T06:52:46.495Z,100957.09
2022-08-07T06:55:29.814Z,100959.91
2022-08-07T06:55:32.524Z,100952.00
2022-08-07T06:55:33.270Z,100954.31
2022-08-07T06:56:07.509Z,100954.31
2022-08-07T06:56:49.633Z,100954.31
2022-08-07T06:57:21.554Z,100950.69
2022-08-07T06:58:11.254Z,100956.03
2022-08-07T07:00:12.996Z,100959.41
2022-08-07T07:00:14.595Z,100951.53
2022-08-07T07:00:31.346Z,100953.22
2022-08-07T07:01:03.583Z,100956.63
2022-08-07T07:01:43.836Z,100952.13
2022-08-07T07:02:49.096Z,100943.84
2022-08-07T07:03:17.192Z,100951.75
2022-08-07T07:03:58.869Z,100953.47
2022-08-07T07:04:43.545Z,100941.91
2022-08-07T07:06:03.042Z,100940.09
2022-08-07T07:06:26.310Z,100949.81
2022-08-07T07:07:00.723Z,100942.69
2022-08-07T07:07:59.590Z,100940.84
2022-08-07T07:08:26.499Z,100944.47
2022-08-07T07:09:16.833Z,100955.91
2022-08-07T07:09:48.911Z,100939.88
2022-08-07T07:10:31.570Z,100947.91
2022-08-07T07:11:13.958Z,100943.53
2022-08-07T07:12:07.575Z,100953.25
2022-08-07T07:12:48.694Z,100947.91
2022-08-07T07:13:43.590Z,100948.03
2022-08-07T07:14:15.468Z,100951.41
2022-08-07T07:15:09.094Z,100943.28
2022-08-07T07:15:57.355Z,100949.47
2022-08-07T07:16:31.242Z,100950.44
2022-08-07T07:17:06.971Z,100943.28
2022-08-07T07:17:50.550Z,100947.78
2022-08-07T07:18:47.023Z,100944.25
2022-08-07T07:19:55.502Z,100950.31
2022-08-07T07:20:12.222Z,100946.66
2022-08-07T07:20:51.285Z,100942.31
2022-08-07T07:21:26.976Z,100952.84
2022-08-07T07:22:36.607Z,100941.31
2022-08-07T07:24:08.821Z,100949.09
2022-08-07T07:24:08.992Z,100947.25
2022-08-07T07:25:03.060Z,100940.09
2022-08-07T07:26:31.101Z,100944.72
2022-08-07T07:26:32.445Z,100943.63